createdAt,value
2019-03-08T00:00:23.224Z,99863.07
2019-03-08T00:02:56.625Z,99856.25
2019-03-08T00:05:30.001Z,99876.61
2019-03-08T00:08:03.398Z,99869.13
2019-03-08T00:10:36.805Z,99873.81
2019-03-08T00:13:10.206Z,99869.61
2019-03-08T00:15:43.773Z,99864.23
2019-03-08T00:18:17.197Z,99860.27
2019-03-08T00:20:50.505Z,99865.50
2019-03-08T00:23:23.850Z,99864.12
2019-03-08T00:25:57.625Z,99877.03
2019-03-08T00:28:30.937Z,99884.44
2019-03-08T00:31:04.261Z,99882.08
2019-03-08T00:33:37.686Z,99889.08
2019-03-08T00:36:11.075Z,99894.42
2019-03-08T00:38:44.489Z,99895.33
2019-03-08T00:41:17.805Z,99896.85
2019-03-08T00:43:51.227Z,99894.98
2019-03-08T00:46:24.580Z,99890.66
2019-03-08T00:48:57.925Z,99894.54
2019-03-08T00:51:31.276Z,99899.77
2019-03-08T00:54:04.693Z,99897.11
2019-03-08T00:56:39.700Z,99910.23
2019-03-08T00:59:13.164Z,99916.42
2019-03-08T01:01:46.556Z,99918.88
2019-03-08T01:04:19.889Z,99926.13
2019-03-08T01:06:53.353Z,99924.30
2019-03-08T01:09:26.965Z,99934.84
2019-03-08T01:12:00.262Z,99935.07
2019-03-08T01:14:33.622Z,99931.77
2019-03-08T01:17:07.017Z,99936.65
2019-03-08T01:19:40.544Z,99939.31
2019-03-08T01:22:13.872Z,99939.13
2019-03-08T01:24:47.302Z,99955.31
2019-03-08T01:27:20.629Z,99948.89
2019-03-08T01:29:54.159Z,99948.68
2019-03-08T01:32:27.578Z,99951.94
2019-03-08T01:35:00.919Z,99948.65
2019-03-08T01:37:34.601Z,99950.48
2019-03-08T01:40:08.666Z,99952.14
2019-03-08T01:42:43.369Z,99954.87
2019-03-08T01:45:16.720Z,99949.83
2019-03-08T01:47:50.061Z,99963.63
2019-03-08T01:50:23.536Z,99969.30
2019-03-08T01:52:56.877Z,99973.16
2019-03-08T01:55:30.269Z,99981.47
2019-03-08T01:58:03.603Z,99984.09
2019-03-08T02:00:36.980Z,99986.34
2019-03-08T02:03:10.400Z,99990.73
2019-03-08T02:05:43.717Z,99990.70
2019-03-08T02:08:17.125Z,99995.56
2019-03-08T02:10:50.455Z,99993.94
2019-03-08T02:13:24.145Z,99997.93
2019-03-08T02:15:57.456Z,99990.99
2019-03-08T02:18:30.790Z,99997.86
2019-03-08T02:21:07.115Z,99993.50
2019-03-08T02:23:39.198Z,100002.14
2019-03-08T02:26:12.552Z,100004.87
2019-03-08T02:28:45.891Z,100004.53
2019-03-08T02:31:19.209Z,100008.06
2019-03-08T02:33:52.616Z,100008.42
2019-03-08T02:36:25.938Z,100009.33
2019-03-08T02:38:59.264Z,100003.27
2019-03-08T02:41:32.621Z,100003.30
2019-03-08T02:44:06.067Z,100006.02
2019-03-08T02:46:39.406Z,100005.61
2019-03-08T02:49:12.945Z,100005.58
2019-03-08T02:51:46.281Z,100012.16
2019-03-08T02:54:19.618Z,100008.16
2019-03-08T02:56:52.967Z,100011.68
2019-03-08T02:59:26.348Z,100010.78
2019-03-08T03:01:59.698Z,100024.98
2019-03-08T03:04:33.036Z,100018.95
2019-03-08T03:07:06.510Z,100018.38
2019-03-08T03:09:39.862Z,100027.67
2019-03-08T03:12:13.184Z,100029.38
2019-03-08T03:14:46.533Z,100026.94
2019-03-08T03:17:20.027Z,100027.09
2019-03-08T03:19:53.441Z,100041.20
2019-03-08T03:22:26.747Z,100042.50
2019-03-08T03:25:00.277Z,100046.08
2019-03-08T03:27:33.884Z,100042.88
2019-03-08T03:30:13.379Z,100048.98
2019-03-08T03:32:46.699Z,100054.23
2019-03-08T03:35:20.049Z,100061.70
2019-03-08T03:37:53.646Z,100056.91
2019-03-08T03:40:27.054Z,100057.31
2019-03-08T03:43:00.414Z,100059.46
2019-03-08T03:45:33.869Z,100055.95
2019-03-08T03:48:07.542Z,100059.80
2019-03-08T03:50:40.880Z,100058.09
2019-03-08T03:53:14.262Z,100056.47
2019-03-08T03:55:47.671Z,100063.16
2019-03-08T03:58:20.996Z,100064.34
2019-03-08T04:00:54.986Z,100064.00
2019-03-08T04:03:28.313Z,100067.02
2019-03-08T04:06:01.675Z,100069.13
2019-03-08T04:08:35.008Z,100067.95
2019-03-08T04:11:08.478Z,100075.91
2019-03-08T04:13:41.815Z,100075.95
2019-03-08T04:16:15.144Z,100086.33
2019-03-08T04:18:48.480Z,100078.45
2019-03-08T04:21:21.865Z,100091.63
2019-03-08T04:23:55.302Z,100093.02
2019-03-08T04:26:28.647Z,100086.49
2019-03-08T04:29:02.056Z,100089.05
2019-03-08T04:31:35.552Z,100094.68
2019-03-08T04:34:08.868Z,100092.80
2019-03-08T04:36:42.302Z,100101.48
2019-03-08T04:39:15.699Z,100100.31
2019-03-08T04:41:49.186Z,100106.47
2019-03-08T04:44:22.532Z,100106.03
2019-03-08T04:46:56.039Z,100110.81
2019-03-08T04:49:29.379Z,100118.68
2019-03-08T04:52:02.725Z,100117.81
2019-03-08T04:54:36.068Z,100114.30
2019-03-08T04:57:09.389Z,100122.52
2019-03-08T04:59:42.738Z,100116.42
2019-03-08T05:02:16.144Z,100120.84
2019-03-08T05:04:49.490Z,100117.30
2019-03-08T05:07:22.832Z,100118.59
2019-03-08T05:09:56.201Z,100122.98
2019-03-08T05:12:30.993Z,100124.75
2019-03-08T05:15:05.724Z,100133.95
2019-03-08T05:17:39.102Z,100129.56
2019-03-08T05:20:12.614Z,100137.89
2019-03-08T05:22:45.938Z,100138.33
2019-03-08T05:25:19.548Z,100140.94
2019-03-08T05:27:52.944Z,100143.09
2019-03-08T05:30:26.266Z,100146.14
2019-03-08T05:32:59.584Z,100146.03
2019-03-08T05:35:33.029Z,100141.69
2019-03-08T05:38:06.424Z,100150.37
2019-03-08T05:40:39.968Z,100152.98
2019-03-08T05:43:13.294Z,100164.72
2019-03-08T05:45:46.642Z,100166.05
2019-03-08T05:48:19.992Z,100172.58
2019-03-08T05:50:53.323Z,100180.83
2019-03-08T05:53:26.639Z,100185.18
2019-03-08T05:56:00.134Z,100196.07
2019-03-08T05:58:33.727Z,100192.97
2019-03-08T06:01:07.086Z,100210.41
2019-03-08T06:03:40.417Z,100209.11
2019-03-08T06:06:13.741Z,100206.11
2019-03-08T06:08:47.196Z,100216.55
2019-03-08T06:11:20.612Z,100226.07
2019-03-08T06:13:53.973Z,100224.27
2019-03-08T06:16:27.377Z,100224.64
2019-03-08T06:19:00.795Z,100226.39
2019-03-08T06:21:34.152Z,100235.09
2019-03-08T06:24:07.532Z,100240.73
2019-03-08T06:26:41.052Z,100246.84
2019-03-08T06:29:14.367Z,100252.04
2019-03-08T06:31:47.994Z,100253.36
2019-03-08T06:34:21.321Z,100262.45
2019-03-08T06:36:54.667Z,100263.35
2019-03-08T06:39:27.993Z,100274.70
2019-03-08T06:42:01.348Z,100274.65
2019-03-08T06:44:34.775Z,100271.14
2019-03-08T06:47:08.168Z,100276.32
2019-03-08T06:49:41.481Z,100277.60
2019-03-08T06:52:14.954Z,100283.73
2019-03-08T06:54:48.252Z,100281.91
2019-03-08T06:57:21.592Z,100288.79
2019-03-08T06:59:56.658Z,100286.95
2019-03-08T07:02:30.301Z,100293.38
2019-03-08T07:05:04.304Z,100292.02
2019-03-08T07:07:37.653Z,100292.86
2019-03-08T07:10:11.065Z,100294.61
2019-03-08T07:12:44.477Z,100289.33
2019-03-08T07:15:17.882Z,100306.98
2019-03-08T07:17:51.248Z,100298.67
2019-03-08T07:20:38.511Z,100310.53
2019-03-08T07:23:27.589Z,100323.39
2019-03-08T07:26:05.145Z,100327.70
2019-03-08T07:28:57.450Z,100326.39
2019-03-08T07:31:32.589Z,100332.50
2019-03-08T07:34:07.671Z,100348.97
2019-03-08T07:36:45.503Z,100355.91
2019-03-08T07:39:36.777Z,100347.12
2019-03-08T07:42:28.124Z,100358.16
2019-03-08T07:45:19.532Z,100358.13
2019-03-08T07:47:57.525Z,100360.80
2019-03-08T07:50:32.805Z,100372.00
2019-03-08T07:53:11.121Z,100364.56
2019-03-08T07:55:52.165Z,100372.33
2019-03-08T07:58:35.865Z,100375.58
2019-03-08T08:01:10.862Z,100372.67
2019-03-08T08:03:45.905Z,100385.73
2019-03-08T08:06:20.884Z,100397.26
2019-03-08T08:08:55.867Z,100408.30
2019-03-08T08:11:33.948Z,100411.44
2019-03-08T08:14:08.920Z,100418.91
2019-03-08T08:16:43.910Z,100430.71
2019-03-08T08:19:18.879Z,100428.09
2019-03-08T08:22:12.416Z,100439.83
2019-03-08T08:24:50.274Z,100431.92
2019-03-08T08:27:27.832Z,100428.78
2019-03-08T08:30:02.918Z,100444.42
2019-03-08T08:32:40.677Z,100446.48
2019-03-08T08:35:15.708Z,100452.62
2019-03-08T08:37:53.407Z,100452.20
2019-03-08T08:40:40.522Z,100456.53
2019-03-08T08:43:15.634Z,100461.28
2019-03-08T08:45:59.877Z,100468.97
2019-03-08T08:48:37.631Z,100469.08
2019-03-08T08:51:21.218Z,100480.41
2019-03-08T08:54:11.300Z,100472.98
2019-03-08T08:56:46.428Z,100478.11
2019-03-08T08:59:24.307Z,100472.88
2019-03-08T09:02:01.824Z,100484.61
2019-03-08T09:04:36.840Z,100482.50
2019-03-08T09:07:14.675Z,100487.34
2019-03-08T09:09:55.340Z,100491.21
2019-03-08T09:12:39.440Z,100486.46
2019-03-08T09:15:17.283Z,100507.80
2019-03-08T09:17:54.773Z,100506.93
2019-03-08T09:20:46.023Z,100502.97
2019-03-08T09:23:39.571Z,100511.19
2019-03-08T09:26:30.436Z,100517.81
2019-03-08T09:29:08.536Z,100519.10
2019-03-08T09:31:43.534Z,100514.73
2019-03-08T09:34:19.593Z,100514.19
2019-03-08T09:37:10.600Z,100521.64
2019-03-08T09:39:45.575Z,100518.09
2019-03-08T09:42:26.115Z,100528.95
2019-03-08T09:45:01.138Z,100531.55
2019-03-08T09:47:36.100Z,100541.78
2019-03-08T09:50:27.106Z,100539.59
2019-03-08T09:53:02.401Z,100542.23
2019-03-08T09:55:37.446Z,100544.91
2019-03-08T09:58:24.106Z,100548.02
2019-03-08T10:01:01.950Z,100555.92
2019-03-08T10:03:36.922Z,100562.56
2019-03-08T10:06:12.122Z,100557.41
2019-03-08T10:08:47.599Z,100560.05
2019-03-08T10:11:22.867Z,100568.80
2019-03-08T10:14:13.074Z,100573.22
2019-03-08T10:16:48.061Z,100578.90
2019-03-08T10:19:28.869Z,100585.92
2019-03-08T10:22:20.079Z,100584.71
2019-03-08T10:24:55.038Z,100597.48
2019-03-08T10:27:38.180Z,100597.12
2019-03-08T10:30:25.910Z,100605.08
2019-03-08T10:33:06.950Z,100609.53
2019-03-08T10:35:41.955Z,100613.98
2019-03-08T10:38:32.332Z,100611.36
2019-03-08T10:41:23.559Z,100620.06
2019-03-08T10:44:09.117Z,100621.43
2019-03-08T10:46:50.109Z,100627.45
2019-03-08T10:49:41.445Z,100626.50
2019-03-08T10:52:22.456Z,100636.52
2019-03-08T10:55:00.443Z,100635.56
2019-03-08T10:57:40.957Z,100637.70
2019-03-08T11:00:19.356Z,100641.58
2019-03-08T11:03:00.350Z,100648.95
2019-03-08T11:05:40.975Z,100652.80
2019-03-08T11:08:29.494Z,100647.88
2019-03-08T11:11:06.638Z,100657.42
2019-03-08T11:13:43.556Z,100668.70
2019-03-08T11:16:20.245Z,100677.27
2019-03-08T11:19:08.552Z,100682.49
2019-03-08T11:21:55.529Z,100679.03
2019-03-08T11:24:33.657Z,100684.50
2019-03-08T11:27:24.056Z,100676.85
2019-03-08T11:29:59.072Z,100669.94
2019-03-08T11:32:36.773Z,100673.22
2019-03-08T11:35:21.777Z,100679.90
2019-03-08T11:38:05.529Z,100679.92
2019-03-08T11:40:40.666Z,100684.78
2019-03-08T11:43:34.101Z,100683.05
2019-03-08T11:46:18.773Z,100682.84
2019-03-08T11:49:05.967Z,100686.01
2019-03-08T11:51:57.054Z,100685.30
2019-03-08T11:54:44.369Z,100684.72
2019-03-08T11:57:25.461Z,100686.64
2019-03-08T12:00:00.473Z,100686.17
2019-03-08T12:02:47.214Z,100694.36
2019-03-08T12:05:31.721Z,100691.28
2019-03-08T12:08:12.752Z,100699.56
2019-03-08T12:10:50.353Z,100688.20
2019-03-08T12:13:25.319Z,100693.38
2019-03-08T12:16:19.047Z,100688.77
2019-03-08T12:19:03.319Z,100699.72
2019-03-08T12:21:38.424Z,100697.41
2019-03-08T12:24:13.468Z,100703.16
2019-03-08T12:26:57.516Z,100714.19
2019-03-08T12:29:32.845Z,100716.77
2019-03-08T12:32:10.412Z,100714.01
2019-03-08T12:35:00.574Z,100715.06
2019-03-08T12:37:41.536Z,100722.09
2019-03-08T12:40:19.571Z,100717.09
2019-03-08T12:42:54.600Z,100716.19
2019-03-08T12:45:41.761Z,100700.49
2019-03-08T12:48:25.752Z,100711.94
2019-03-08T12:51:17.287Z,100706.88
2019-03-08T12:54:10.633Z,100714.22
2019-03-08T12:56:54.574Z,100714.16
2019-03-08T12:59:35.036Z,100718.72
2019-03-08T13:02:19.011Z,100722.56
2019-03-08T13:05:00.015Z,100725.86
2019-03-08T13:07:35.013Z,100720.17
2019-03-08T13:10:16.423Z,100718.91
2019-03-08T13:12:50.186Z,100719.02
2019-03-08T13:15:23.620Z,100726.09
2019-03-08T13:17:56.937Z,100735.11
2019-03-08T13:20:30.409Z,100745.48
2019-03-08T13:23:03.996Z,100743.85
2019-03-08T13:25:37.415Z,100740.45
2019-03-08T13:28:10.748Z,100743.70
2019-03-08T13:30:44.183Z,100746.70
2019-03-08T13:33:17.561Z,100754.95
2019-03-08T13:35:50.959Z,100765.81
2019-03-08T13:38:24.400Z,100760.34
2019-03-08T13:40:57.817Z,100764.60
2019-03-08T13:43:31.157Z,100776.00
2019-03-08T13:46:04.652Z,100764.66
2019-03-08T13:48:38.049Z,100779.68
2019-03-08T13:51:11.402Z,100776.16
2019-03-08T13:53:44.771Z,100780.00
2019-03-08T13:56:18.309Z,100771.60
2019-03-08T13:58:51.717Z,100772.45
2019-03-08T14:01:25.134Z,100777.94
2019-03-08T14:03:58.557Z,100771.87
2019-03-08T14:06:32.177Z,100763.33
2019-03-08T14:09:06.630Z,100771.88
2019-03-08T14:11:40.030Z,100768.86
2019-03-08T14:14:13.395Z,100772.55
2019-03-08T14:16:46.751Z,100772.00
2019-03-08T14:19:20.163Z,100764.03
2019-03-08T14:21:53.521Z,100769.72
2019-03-08T14:24:26.939Z,100767.73
2019-03-08T14:27:00.312Z,100769.61
2019-03-08T14:29:33.628Z,100773.39
2019-03-08T14:32:06.984Z,100771.88
2019-03-08T14:34:40.311Z,100777.86
2019-03-08T14:37:16.203Z,100772.55
2019-03-08T14:39:48.794Z,100773.23
2019-03-08T14:42:26.516Z,100770.30
2019-03-08T14:45:03.599Z,100777.57
2019-03-08T14:47:37.107Z,100775.87
2019-03-08T14:50:10.868Z,100783.27
2019-03-08T14:52:44.373Z,100773.63
2019-03-08T14:55:18.942Z,100780.26
2019-03-08T14:57:55.335Z,100791.29
2019-03-08T15:00:29.097Z,100794.55
2019-03-08T15:03:03.137Z,100789.61
2019-03-08T15:05:36.482Z,100790.08
2019-03-08T15:08:13.582Z,100782.61
2019-03-08T15:10:47.233Z,100790.52
2019-03-08T15:13:23.881Z,100799.36
2019-03-08T15:15:57.906Z,100788.77
2019-03-08T15:18:31.220Z,100796.65
2019-03-08T15:21:04.603Z,100793.37
2019-03-08T15:23:37.979Z,100787.04
2019-03-08T15:26:11.454Z,100792.60
2019-03-08T15:28:44.832Z,100790.83
2019-03-08T15:31:18.390Z,100782.95
2019-03-08T15:33:51.757Z,100781.41
2019-03-08T15:36:25.079Z,100783.67
2019-03-08T15:38:59.118Z,100788.34
2019-03-08T15:41:32.582Z,100779.17
2019-03-08T15:44:06.016Z,100784.05
2019-03-08T15:46:39.434Z,100781.81
2019-03-08T15:49:13.694Z,100790.55
2019-03-08T15:51:47.251Z,100779.14
2019-03-08T15:54:20.652Z,100779.31
2019-03-08T15:56:54.396Z,100779.95
2019-03-08T15:59:27.770Z,100775.56
2019-03-08T16:02:02.008Z,100777.89
2019-03-08T16:04:36.246Z,100779.17
2019-03-08T16:07:10.064Z,100781.27
2019-03-08T16:09:43.477Z,100784.08
2019-03-08T16:12:16.981Z,100785.77
2019-03-08T16:14:50.595Z,100788.68
2019-03-08T16:17:24.014Z,100789.58
2019-03-08T16:19:58.881Z,100791.34
2019-03-08T16:22:32.641Z,100785.64
2019-03-08T16:25:09.054Z,100788.55
2019-03-08T16:27:42.481Z,100794.02
2019-03-08T16:30:23.705Z,100792.04
2019-03-08T16:33:04.111Z,100785.91
2019-03-08T16:35:48.156Z,100793.67
2019-03-08T16:38:39.083Z,100790.37
2019-03-08T16:41:29.418Z,100796.55
2019-03-08T16:44:13.568Z,100800.06
2019-03-08T16:46:48.706Z,100801.56
2019-03-08T16:49:39.787Z,100805.19
2019-03-08T16:52:23.389Z,100807.46
2019-03-08T16:55:01.217Z,100811.47
2019-03-08T16:57:45.203Z,100815.01
2019-03-08T17:00:32.256Z,100811.53
2019-03-08T17:03:13.309Z,100809.83
2019-03-08T17:05:48.347Z,100816.49
2019-03-08T17:08:39.266Z,100807.02
2019-03-08T17:11:32.189Z,100818.02
2019-03-08T17:14:16.016Z,100816.38
2019-03-08T17:16:51.025Z,100815.23
2019-03-08T17:19:28.992Z,100822.39
2019-03-08T17:22:15.988Z,100821.20
2019-03-08T17:24:59.962Z,100819.05
2019-03-08T17:27:41.338Z,100823.78
2019-03-08T17:30:24.519Z,100818.50
2019-03-08T17:32:59.620Z,100822.86
2019-03-08T17:35:35.276Z,100825.97
2019-03-08T17:38:12.943Z,100831.31
2019-03-08T17:41:04.186Z,100826.03
2019-03-08T17:43:41.867Z,100830.83
2019-03-08T17:46:19.686Z,100830.06
2019-03-08T17:49:06.787Z,100838.40
2019-03-08T17:51:57.901Z,100845.02
2019-03-08T17:54:49.194Z,100850.69
2019-03-08T17:57:26.883Z,100857.63
2019-03-08T18:00:10.818Z,100857.64
2019-03-08T18:02:45.868Z,100866.80
2019-03-08T18:05:23.682Z,100876.81
2019-03-08T18:07:58.715Z,100873.31
2019-03-08T18:10:42.927Z,100886.37
2019-03-08T18:13:17.888Z,100877.68
2019-03-08T18:15:55.531Z,100880.30
2019-03-08T18:18:46.143Z,100884.22
2019-03-08T18:21:33.154Z,100876.38
2019-03-08T18:24:24.298Z,100876.38
2019-03-08T18:26:59.350Z,100872.48
2019-03-08T18:29:49.789Z,100859.39
2019-03-08T18:32:27.729Z,100861.59
2019-03-08T18:35:05.805Z,100870.73
2019-03-08T18:37:57.175Z,100872.89
2019-03-08T18:40:35.186Z,100862.45
2019-03-08T18:43:10.212Z,100870.31
2019-03-08T18:46:01.479Z,100868.13
2019-03-08T18:48:36.498Z,100872.48
2019-03-08T18:51:23.697Z,100865.08
2019-03-08T18:54:04.546Z,100873.77
2019-03-08T18:56:45.584Z,100875.95
2019-03-08T18:59:26.449Z,100870.74
2019-03-08T19:02:16.703Z,100866.36
2019-03-08T19:04:54.542Z,100859.83
2019-03-08T19:07:32.094Z,100868.95
2019-03-08T19:10:11.772Z,100867.22
2019-03-08T19:12:46.911Z,100873.28
2019-03-08T19:15:28.000Z,100881.95
2019-03-08T19:18:19.138Z,100880.69
2019-03-08T19:21:10.244Z,100884.58
2019-03-08T19:23:47.786Z,100888.91
2019-03-08T19:26:25.486Z,100887.63
2019-03-08T19:29:00.472Z,100891.59
2019-03-08T19:31:44.351Z,100890.73
2019-03-08T19:34:19.805Z,100896.87
2019-03-08T19:36:57.620Z,100892.92
2019-03-08T19:39:38.896Z,100892.05
2019-03-08T19:42:22.942Z,100895.97
2019-03-08T19:45:03.820Z,100896.88
2019-03-08T19:47:45.143Z,100899.48
2019-03-08T19:50:36.435Z,100899.48
2019-03-08T19:53:13.965Z,100891.63
2019-03-08T19:55:52.332Z,100899.04
2019-03-08T19:58:27.323Z,100892.52
2019-03-08T20:01:14.768Z,100898.18
2019-03-08T20:03:53.053Z,100902.95
2019-03-08T20:06:39.595Z,100905.58
2019-03-08T20:09:14.684Z,100901.59
2019-03-08T20:12:05.662Z,100905.94
2019-03-08T20:14:43.382Z,100910.73
2019-03-08T20:17:24.898Z,100909.42
2019-03-08T20:20:11.676Z,100905.86
2019-03-08T20:22:46.750Z,100905.35
2019-03-08T20:25:27.413Z,100895.69
2019-03-08T20:28:08.172Z,100893.03
2019-03-08T20:30:43.298Z,100895.61
2019-03-08T20:33:23.836Z,100883.39
2019-03-08T20:35:58.939Z,100890.34
2019-03-08T20:38:49.002Z,100882.88
2019-03-08T20:41:26.497Z,100878.44
2019-03-08T20:44:13.816Z,100878.92
2019-03-08T20:47:00.872Z,100878.80
2019-03-08T20:49:34.307Z,100872.76
2019-03-08T20:52:07.851Z,100871.92
2019-03-08T20:54:41.590Z,100875.88
2019-03-08T20:57:15.151Z,100865.44
2019-03-08T20:59:48.608Z,100867.06
2019-03-08T21:02:21.978Z,100870.16
2019-03-08T21:04:55.552Z,100868.88
2019-03-08T21:07:29.278Z,100866.70
2019-03-08T21:10:02.980Z,100864.50
2019-03-08T21:12:36.337Z,100859.70
2019-03-08T21:15:25.078Z,100858.89
2019-03-08T21:17:51.121Z,100860.25
2019-03-08T21:20:24.593Z,100855.41
2019-03-08T21:22:58.070Z,100852.73
2019-03-08T21:25:31.408Z,100859.25
2019-03-08T21:28:04.869Z,100857.13
2019-03-08T21:30:38.254Z,100855.47
2019-03-08T21:33:11.676Z,100856.58
2019-03-08T21:35:45.080Z,100851.80
2019-03-08T21:38:18.443Z,100858.75
2019-03-08T21:40:51.780Z,100855.61
2019-03-08T21:43:25.294Z,100845.80
2019-03-08T21:45:58.637Z,100846.80
2019-03-08T21:48:32.007Z,100847.34
2019-03-08T21:51:05.485Z,100841.19
2019-03-08T21:53:38.883Z,100849.55
2019-03-08T21:56:12.217Z,100845.23
2019-03-08T21:58:45.561Z,100840.75
2019-03-08T22:01:18.942Z,100842.16
2019-03-08T22:03:54.211Z,100855.46
2019-03-08T22:06:27.648Z,100837.27
2019-03-08T22:09:05.370Z,100843.48
2019-03-08T22:11:40.046Z,100836.56
2019-03-08T22:14:13.399Z,100837.83
2019-03-08T22:16:46.841Z,100832.92
2019-03-08T22:19:20.269Z,100836.92
2019-03-08T22:21:53.752Z,100841.67
2019-03-08T22:24:27.268Z,100832.48
2019-03-08T22:27:00.689Z,100822.40
2019-03-08T22:29:34.164Z,100809.23
2019-03-08T22:32:07.594Z,100813.13
2019-03-08T22:34:41.028Z,100806.17
2019-03-08T22:37:14.427Z,100798.79
2019-03-08T22:39:47.857Z,100796.19
2019-03-08T22:42:21.185Z,100790.89
2019-03-08T22:44:54.535Z,100787.93
2019-03-08T22:47:28.056Z,100780.70
2019-03-08T22:50:01.493Z,100774.52
2019-03-08T22:52:34.843Z,100776.78
2019-03-08T22:55:13.487Z,100771.64
2019-03-08T22:57:46.896Z,100773.03
2019-03-08T23:00:54.095Z,100770.07
2019-03-08T23:03:28.701Z,100767.99
2019-03-08T23:06:02.165Z,100764.60
2019-03-08T23:08:35.762Z,100760.77
2019-03-08T23:11:09.195Z,100765.20
2019-03-08T23:13:42.540Z,100749.10
2019-03-08T23:16:15.975Z,100754.76
2019-03-08T23:18:49.478Z,100751.74
2019-03-08T23:21:22.917Z,100751.78
2019-03-08T23:23:56.356Z,100748.30
2019-03-08T23:26:31.325Z,100746.13
2019-03-08T23:29:21.848Z,100746.16
2019-03-08T23:31:59.913Z,100745.71
2019-03-08T23:34:33.245Z,100753.59
2019-03-08T23:37:06.710Z,100760.11
2019-03-08T23:39:40.129Z,100753.59
2019-03-08T23:42:13.447Z,100756.63
2019-03-08T23:44:47.066Z,100751.83
2019-03-08T23:47:20.395Z,100747.91
2019-03-08T23:49:53.811Z,100754.85
2019-03-08T23:52:27.143Z,100756.59
2019-03-08T23:55:00.761Z,100755.25
2019-03-08T23:57:34.180Z,100748.73
